sensor_id;sensor_type;location;lat;lon;timestamp;P1;durP1;ratioP1;P2;durP2;ratioP2
59756;SDS011;45631;51.962;5.974;2022-10-12T00:01:00;11.75;;;4.45;;
59756;SDS011;45631;51.962;5.974;2022-10-12T00:03:29;10.65;;;4.25;;
59756;SDS011;45631;51.962;5.974;2022-10-12T00:06:02;8.05;;;3.85;;
59756;SDS011;45631;51.962;5.974;2022-10-12T00:08:32;10.35;;;3.72;;
59756;SDS011;45631;51.962;5.974;2022-10-12T00:11:01;9.63;;;3.55;;
59756;SDS011;45631;51.962;5.974;2022-10-12T00:13:29;11.05;;;4.28;;
59756;SDS011;45631;51.962;5.974;2022-10-12T00:16:00;11.23;;;4.07;;
59756;SDS011;45631;51.962;5.974;2022-10-12T00:18:29;13.43;;;4.40;;
59756;SDS011;45631;51.962;5.974;2022-10-12T00:21:03;10.43;;;3.88;;
59756;SDS011;45631;51.962;5.974;2022-10-12T00:23:35;9.07;;;4.18;;
59756;SDS011;45631;51.962;5.974;2022-10-12T00:26:06;10.30;;;3.60;;
59756;SDS011;45631;51.962;5.974;2022-10-12T00:28:37;14.32;;;3.72;;
59756;SDS011;45631;51.962;5.974;2022-10-12T00:31:06;10.07;;;3.80;;
59756;SDS011;45631;51.962;5.974;2022-10-12T00:33:35;10.20;;;3.58;;
59756;SDS011;45631;51.962;5.974;2022-10-12T00:36:13;11.77;;;3.60;;
59756;SDS011;45631;51.962;5.974;2022-10-12T00:38:44;10.00;;;3.28;;
59756;SDS011;45631;51.962;5.974;2022-10-12T00:41:13;8.93;;;3.67;;
59756;SDS011;45631;51.962;5.974;2022-10-12T00:43:42;9.27;;;3.33;;
59756;SDS011;45631;51.962;5.974;2022-10-12T00:46:12;9.68;;;3.90;;
59756;SDS011;45631;51.962;5.974;2022-10-12T00:48:44;8.07;;;3.22;;
59756;SDS011;45631;51.962;5.974;2022-10-12T00:51:17;12.00;;;3.30;;
59756;SDS011;45631;51.962;5.974;2022-10-12T00:53:55;8.13;;;3.25;;
59756;SDS011;45631;51.962;5.974;2022-10-12T00:56:29;8.73;;;3.45;;
59756;SDS011;45631;51.962;5.974;2022-10-12T00:59:01;10.65;;;3.90;;
59756;SDS011;45631;51.962;5.974;2022-10-12T01:01:33;10.70;;;3.63;;
59756;SDS011;45631;51.962;5.974;2022-10-12T01:04:03;10.93;;;3.65;;
59756;SDS011;45631;51.962;5.974;2022-10-12T01:06:34;9.30;;;3.55;;
59756;SDS011;45631;51.962;5.974;2022-10-12T01:09:03;8.23;;;3.70;;
59756;SDS011;45631;51.962;5.974;2022-10-12T01:11:31;10.20;;;3.60;;
59756;SDS011;45631;51.962;5.974;2022-10-12T01:13:59;10.57;;;3.72;;
59756;SDS011;45631;51.962;5.974;2022-10-12T01:16:28;8.25;;;3.47;;
59756;SDS011;45631;51.962;5.974;2022-10-12T01:19:05;12.05;;;4.00;;
59756;SDS011;45631;51.962;5.974;2022-10-12T01:21:43;12.23;;;3.85;;
59756;SDS011;45631;51.962;5.974;2022-10-12T01:24:33;9.80;;;3.67;;
59756;SDS011;45631;51.962;5.974;2022-10-12T01:27:24;9.60;;;3.38;;
59756;SDS011;45631;51.962;5.974;2022-10-12T01:30:16;9.70;;;3.30;;
59756;SDS011;45631;51.962;5.974;2022-10-12T01:35:53;7.10;;;3.25;;
59756;SDS011;45631;51.962;5.974;2022-10-12T01:38:32;9.00;;;3.50;;
59756;SDS011;45631;51.962;5.974;2022-10-12T01:41:06;6.82;;;3.13;;
59756;SDS011;45631;51.962;5.974;2022-10-12T01:43:41;8.35;;;3.22;;
59756;SDS011;45631;51.962;5.974;2022-10-12T01:49:13;9.43;;;3.47;;
59756;SDS011;45631;51.962;5.974;2022-10-12T01:54:41;8.70;;;2.85;;
59756;SDS011;45631;51.962;5.974;2022-10-12T01:57:20;5.45;;;2.67;;
59756;SDS011;45631;51.962;5.974;2022-10-12T02:00:00;9.18;;;3.00;;
59756;SDS011;45631;51.962;5.974;2022-10-12T02:02:35;9.52;;;3.08;;
59756;SDS011;45631;51.962;5.974;2022-10-12T02:05:14;8.48;;;3.15;;
59756;SDS011;45631;51.962;5.974;2022-10-12T02:07:48;6.93;;;2.70;;
59756;SDS011;45631;51.962;5.974;2022-10-12T02:10:23;6.65;;;2.92;;
59756;SDS011;45631;51.962;5.974;2022-10-12T02:12:55;7.43;;;2.78;;
59756;SDS011;45631;51.962;5.974;2022-10-12T02:15:27;5.05;;;2.42;;
59756;SDS011;45631;51.962;5.974;2022-10-12T02:17:58;5.53;;;2.83;;
59756;SDS011;45631;51.962;5.974;2022-10-12T02:20:30;6.40;;;3.10;;
59756;SDS011;45631;51.962;5.974;2022-10-12T02:23:00;5.80;;;2.60;;
59756;SDS011;45631;51.962;5.974;2022-10-12T02:25:29;6.32;;;2.60;;
59756;SDS011;45631;51.962;5.974;2022-10-12T02:28:01;5.47;;;2.30;;
59756;SDS011;45631;51.962;5.974;2022-10-12T02:30:33;8.27;;;2.78;;
59756;SDS011;45631;51.962;5.974;2022-10-12T02:33:06;9.68;;;3.10;;
59756;SDS011;45631;51.962;5.974;2022-10-12T02:35:42;8.55;;;2.42;;
59756;SDS011;45631;51.962;5.974;2022-10-12T02:38:18;7.20;;;2.78;;
59756;SDS011;45631;51.962;5.974;2022-10-12T02:40:53;9.07;;;2.83;;
59756;SDS011;45631;51.962;5.974;2022-10-12T02:43:25;6.50;;;2.97;;
59756;SDS011;45631;51.962;5.974;2022-10-12T02:48:26;7.28;;;2.55;;
59756;SDS011;45631;51.962;5.974;2022-10-12T02:50:56;7.40;;;2.72;;
59756;SDS011;45631;51.962;5.974;2022-10-12T02:53:25;7.97;;;2.75;;
59756;SDS011;45631;51.962;5.974;2022-10-12T02:55:58;9.90;;;2.78;;
59756;SDS011;45631;51.962;5.974;2022-10-12T02:58:29;6.63;;;2.28;;
59756;SDS011;45631;51.962;5.974;2022-10-12T03:00:58;6.90;;;2.45;;
59756;SDS011;45631;51.962;5.974;2022-10-12T03:03:27;7.65;;;2.85;;
59756;SDS011;45631;51.962;5.974;2022-10-12T03:05:55;6.40;;;2.70;;
59756;SDS011;45631;51.962;5.974;2022-10-12T03:08:24;7.82;;;3.00;;
59756;SDS011;45631;51.962;5.974;2022-10-12T03:10:52;6.22;;;2.63;;
59756;SDS011;45631;51.962;5.974;2022-10-12T03:13:20;7.65;;;3.10;;
59756;SDS011;45631;51.962;5.974;2022-10-12T03:15:48;5.47;;;2.65;;
59756;SDS011;45631;51.962;5.974;2022-10-12T03:18:16;7.63;;;3.05;;
59756;SDS011;45631;51.962;5.974;2022-10-12T03:20:47;4.80;;;2.20;;
59756;SDS011;45631;51.962;5.974;2022-10-12T03:23:15;7.78;;;2.83;;
59756;SDS011;45631;51.962;5.974;2022-10-12T03:25:43;7.85;;;2.85;;
59756;SDS011;45631;51.962;5.974;2022-10-12T03:28:12;6.90;;;2.63;;
59756;SDS011;45631;51.962;5.974;2022-10-12T03:30:40;6.10;;;2.55;;
59756;SDS011;45631;51.962;5.974;2022-10-12T03:33:09;6.18;;;2.33;;
59756;SDS011;45631;51.962;5.974;2022-10-12T03:35:37;8.63;;;2.67;;
59756;SDS011;45631;51.962;5.974;2022-10-12T03:38:07;7.45;;;3.33;;
59756;SDS011;45631;51.962;5.974;2022-10-12T03:40:35;6.93;;;2.60;;
59756;SDS011;45631;51.962;5.974;2022-10-12T03:43:04;6.78;;;2.85;;
59756;SDS011;45631;51.962;5.974;2022-10-12T03:45:32;9.00;;;3.25;;
59756;SDS011;45631;51.962;5.974;2022-10-12T03:48:01;12.60;;;3.72;;
59756;SDS011;45631;51.962;5.974;2022-10-12T03:50:33;6.90;;;2.90;;
59756;SDS011;45631;51.962;5.974;2022-10-12T03:53:03;7.40;;;3.30;;
59756;SDS011;45631;51.962;5.974;2022-10-12T03:55:33;7.57;;;2.92;;
59756;SDS011;45631;51.962;5.974;2022-10-12T03:58:01;7.93;;;2.80;;
59756;SDS011;45631;51.962;5.974;2022-10-12T04:00:29;7.22;;;3.10;;
59756;SDS011;45631;51.962;5.974;2022-10-12T04:02:57;7.00;;;3.00;;
59756;SDS011;45631;51.962;5.974;2022-10-12T04:05:26;6.18;;;3.00;;
59756;SDS011;45631;51.962;5.974;2022-10-12T04:07:54;5.55;;;2.53;;
59756;SDS011;45631;51.962;5.974;2022-10-12T04:10:22;5.68;;;2.70;;
59756;SDS011;45631;51.962;5.974;2022-10-12T04:12:52;6.90;;;2.80;;
59756;SDS011;45631;51.962;5.974;2022-10-12T04:15:20;9.25;;;3.30;;
59756;SDS011;45631;51.962;5.974;2022-10-12T04:17:53;5.95;;;2.92;;
59756;SDS011;45631;51.962;5.974;2022-10-12T04:20:21;6.43;;;3.03;;
59756;SDS011;45631;51.962;5.974;2022-10-12T04:22:49;8.45;;;3.10;;
59756;SDS011;45631;51.962;5.974;2022-10-12T04:25:17;6.03;;;2.58;;
59756;SDS011;45631;51.962;5.974;2022-10-12T04:27:45;5.97;;;2.85;;
59756;SDS011;45631;51.962;5.974;2022-10-12T04:30:15;6.28;;;2.80;;
59756;SDS011;45631;51.962;5.974;2022-10-12T04:32:44;6.35;;;2.95;;
59756;SDS011;45631;51.962;5.974;2022-10-12T04:35:12;6.30;;;2.92;;
59756;SDS011;45631;51.962;5.974;2022-10-12T04:37:40;6.38;;;3.78;;
59756;SDS011;45631;51.962;5.974;2022-10-12T04:40:08;5.97;;;3.40;;
59756;SDS011;45631;51.962;5.974;2022-10-12T04:42:36;6.60;;;3.42;;
59756;SDS011;45631;51.962;5.974;2022-10-12T04:45:05;6.95;;;3.33;;
59756;SDS011;45631;51.962;5.974;2022-10-12T04:47:35;7.25;;;3.40;;
59756;SDS011;45631;51.962;5.974;2022-10-12T04:50:04;9.02;;;3.53;;
59756;SDS011;45631;51.962;5.974;2022-10-12T04:52:33;6.43;;;3.47;;
59756;SDS011;45631;51.962;5.974;2022-10-12T04:55:01;8.75;;;4.00;;
59756;SDS011;45631;51.962;5.974;2022-10-12T04:57:30;5.95;;;3.33;;
59756;SDS011;45631;51.962;5.974;2022-10-12T04:59:58;7.47;;;3.30;;
59756;SDS011;45631;51.962;5.974;2022-10-12T05:02:26;6.57;;;3.13;;
59756;SDS011;45631;51.962;5.974;2022-10-12T05:04:55;10.55;;;5.80;;
59756;SDS011;45631;51.962;5.974;2022-10-12T05:07:23;7.20;;;4.43;;
59756;SDS011;45631;51.962;5.974;2022-10-12T05:09:51;8.82;;;3.80;;
59756;SDS011;45631;51.962;5.974;2022-10-12T05:12:20;11.50;;;4.78;;
59756;SDS011;45631;51.962;5.974;2022-10-12T05:14:48;9.38;;;3.85;;
59756;SDS011;45631;51.962;5.974;2022-10-12T05:17:16;8.43;;;4.22;;
59756;SDS011;45631;51.962;5.974;2022-10-12T05:19:44;9.18;;;3.97;;
59756;SDS011;45631;51.962;5.974;2022-10-12T05:22:13;8.82;;;4.20;;
59756;SDS011;45631;51.962;5.974;2022-10-12T05:24:42;7.05;;;3.80;;
59756;SDS011;45631;51.962;5.974;2022-10-12T05:27:10;8.05;;;4.05;;
59756;SDS011;45631;51.962;5.974;2022-10-12T05:29:38;7.57;;;3.95;;
59756;SDS011;45631;51.962;5.974;2022-10-12T05:32:06;8.48;;;4.15;;
59756;SDS011;45631;51.962;5.974;2022-10-12T05:34:34;9.15;;;4.88;;
59756;SDS011;45631;51.962;5.974;2022-10-12T05:37:02;6.90;;;4.22;;
59756;SDS011;45631;51.962;5.974;2022-10-12T05:39:32;8.43;;;4.80;;
59756;SDS011;45631;51.962;5.974;2022-10-12T05:42:01;12.27;;;4.32;;
59756;SDS011;45631;51.962;5.974;2022-10-12T05:44:30;8.93;;;4.30;;
59756;SDS011;45631;51.962;5.974;2022-10-12T05:46:58;8.73;;;4.15;;
59756;SDS011;45631;51.962;5.974;2022-10-12T05:49:26;9.18;;;4.03;;
59756;SDS011;45631;51.962;5.974;2022-10-12T05:51:56;8.18;;;3.88;;
59756;SDS011;45631;51.962;5.974;2022-10-12T05:54:24;8.35;;;4.13;;
59756;SDS011;45631;51.962;5.974;2022-10-12T05:56:53;10.48;;;4.15;;
59756;SDS011;45631;51.962;5.974;2022-10-12T05:59:21;10.18;;;5.13;;
59756;SDS011;45631;51.962;5.974;2022-10-12T06:01:49;9.25;;;4.18;;
59756;SDS011;45631;51.962;5.974;2022-10-12T06:04:18;8.70;;;4.15;;
59756;SDS011;45631;51.962;5.974;2022-10-12T06:06:46;9.18;;;4.15;;
59756;SDS011;45631;51.962;5.974;2022-10-12T06:09:17;8.60;;;4.60;;
59756;SDS011;45631;51.962;5.974;2022-10-12T06:11:45;10.88;;;4.03;;
59756;SDS011;45631;51.962;5.974;2022-10-12T06:14:15;7.72;;;4.18;;
59756;SDS011;45631;51.962;5.974;2022-10-12T06:16:43;9.50;;;4.35;;
59756;SDS011;45631;51.962;5.974;2022-10-12T06:19:11;8.50;;;4.15;;
59756;SDS011;45631;51.962;5.974;2022-10-12T06:21:39;9.32;;;3.92;;
59756;SDS011;45631;51.962;5.974;2022-10-12T06:24:07;8.43;;;4.40;;
59756;SDS011;45631;51.962;5.974;2022-10-12T06:26:35;7.82;;;4.00;;
59756;SDS011;45631;51.962;5.974;2022-10-12T06:29:03;14.40;;;4.88;;
59756;SDS011;45631;51.962;5.974;2022-10-12T06:31:33;9.38;;;4.90;;
59756;SDS011;45631;51.962;5.974;2022-10-12T06:34:03;8.95;;;5.00;;
59756;SDS011;45631;51.962;5.974;2022-10-12T06:36:31;9.52;;;5.13;;
59756;SDS011;45631;51.962;5.974;2022-10-12T06:38:59;11.30;;;5.35;;
59756;SDS011;45631;51.962;5.974;2022-10-12T06:41:27;11.15;;;5.18;;
59756;SDS011;45631;51.962;5.974;2022-10-12T06:43:56;11.60;;;5.53;;
59756;SDS011;45631;51.962;5.974;2022-10-12T06:46:24;10.40;;;6.07;;
59756;SDS011;45631;51.962;5.974;2022-10-12T06:48:53;17.95;;;6.70;;
59756;SDS011;45631;51.962;5.974;2022-10-12T06:51:22;12.85;;;7.10;;
59756;SDS011;45631;51.962;5.974;2022-10-12T06:53:52;15.55;;;7.35;;
59756;SDS011;45631;51.962;5.974;2022-10-12T06:56:21;12.32;;;7.00;;
59756;SDS011;45631;51.962;5.974;2022-10-12T06:58:52;11.27;;;6.68;;
59756;SDS011;45631;51.962;5.974;2022-10-12T07:01:21;12.82;;;7.30;;
59756;SDS011;45631;51.962;5.974;2022-10-12T07:03:49;14.40;;;6.90;;
59756;SDS011;45631;51.962;5.974;2022-10-12T07:06:22;13.32;;;7.15;;
59756;SDS011;45631;51.962;5.974;2022-10-12T07:08:52;12.65;;;6.85;;
59756;SDS011;45631;51.962;5.974;2022-10-12T07:11:21;10.63;;;6.32;;
59756;SDS011;45631;51.962;5.974;2022-10-12T07:13:49;10.77;;;7.03;;
59756;SDS011;45631;51.962;5.974;2022-10-12T07:16:17;10.00;;;6.53;;
59756;SDS011;45631;51.962;5.974;2022-10-12T07:18:45;14.68;;;6.72;;
59756;SDS011;45631;51.962;5.974;2022-10-12T07:21:13;13.10;;;7.47;;
59756;SDS011;45631;51.962;5.974;2022-10-12T07:23:43;13.70;;;7.63;;
59756;SDS011;45631;51.962;5.974;2022-10-12T07:26:11;11.38;;;6.88;;
59756;SDS011;45631;51.962;5.974;2022-10-12T07:28:40;13.95;;;7.15;;
59756;SDS011;45631;51.962;5.974;2022-10-12T07:31:08;12.68;;;7.57;;
59756;SDS011;45631;51.962;5.974;2022-10-12T07:33:37;15.55;;;7.85;;
59756;SDS011;45631;51.962;5.974;2022-10-12T07:36:05;13.52;;;7.70;;
59756;SDS011;45631;51.962;5.974;2022-10-12T07:38:48;15.13;;;7.78;;
59756;SDS011;45631;51.962;5.974;2022-10-12T07:41:17;15.50;;;8.32;;
59756;SDS011;45631;51.962;5.974;2022-10-12T07:43:45;16.90;;;8.30;;
59756;SDS011;45631;51.962;5.974;2022-10-12T07:46:14;15.25;;;8.70;;
59756;SDS011;45631;51.962;5.974;2022-10-12T07:48:42;13.63;;;7.78;;
59756;SDS011;45631;51.962;5.974;2022-10-12T07:51:15;15.45;;;8.05;;
59756;SDS011;45631;51.962;5.974;2022-10-12T07:53:44;11.27;;;7.50;;
59756;SDS011;45631;51.962;5.974;2022-10-12T07:56:14;13.60;;;7.55;;
59756;SDS011;45631;51.962;5.974;2022-10-12T07:58:42;13.07;;;8.13;;
59756;SDS011;45631;51.962;5.974;2022-10-12T08:01:14;14.88;;;7.38;;
59756;SDS011;45631;51.962;5.974;2022-10-12T08:03:43;15.70;;;7.43;;
59756;SDS011;45631;51.962;5.974;2022-10-12T08:06:11;14.07;;;8.15;;
59756;SDS011;45631;51.962;5.974;2022-10-12T08:08:41;17.77;;;7.88;;
59756;SDS011;45631;51.962;5.974;2022-10-12T08:11:10;19.92;;;7.63;;
59756;SDS011;45631;51.962;5.974;2022-10-12T08:13:40;17.35;;;8.15;;
59756;SDS011;45631;51.962;5.974;2022-10-12T08:16:10;14.05;;;7.70;;
59756;SDS011;45631;51.962;5.974;2022-10-12T08:18:39;19.13;;;7.40;;
59756;SDS011;45631;51.962;5.974;2022-10-12T08:21:08;14.52;;;7.32;;
59756;SDS011;45631;51.962;5.974;2022-10-12T08:23:37;16.10;;;7.47;;
59756;SDS011;45631;51.962;5.974;2022-10-12T08:26:06;16.27;;;7.95;;
59756;SDS011;45631;51.962;5.974;2022-10-12T08:28:34;15.93;;;8.07;;
59756;SDS011;45631;51.962;5.974;2022-10-12T08:31:08;16.98;;;9.30;;
59756;SDS011;45631;51.962;5.974;2022-10-12T08:33:38;16.58;;;8.35;;
59756;SDS011;45631;51.962;5.974;2022-10-12T08:36:06;13.07;;;8.18;;
59756;SDS011;45631;51.962;5.974;2022-10-12T08:38:36;19.63;;;9.40;;
59756;SDS011;45631;51.962;5.974;2022-10-12T08:41:12;16.40;;;9.15;;
59756;SDS011;45631;51.962;5.974;2022-10-12T08:43:54;15.70;;;9.15;;
59756;SDS011;45631;51.962;5.974;2022-10-12T08:46:33;16.02;;;9.45;;
59756;SDS011;45631;51.962;5.974;2022-10-12T08:49:02;20.52;;;9.23;;
59756;SDS011;45631;51.962;5.974;2022-10-12T08:51:39;15.90;;;8.95;;
59756;SDS011;45631;51.962;5.974;2022-10-12T08:54:14;19.30;;;10.00;;
59756;SDS011;45631;51.962;5.974;2022-10-12T08:56:43;16.13;;;9.25;;
59756;SDS011;45631;51.962;5.974;2022-10-12T08:59:12;15.60;;;9.95;;
59756;SDS011;45631;51.962;5.974;2022-10-12T09:01:48;20.98;;;9.73;;
59756;SDS011;45631;51.962;5.974;2022-10-12T09:04:31;19.88;;;9.88;;
59756;SDS011;45631;51.962;5.974;2022-10-12T09:07:08;19.50;;;9.95;;
59756;SDS011;45631;51.962;5.974;2022-10-12T09:09:45;14.35;;;9.68;;
59756;SDS011;45631;51.962;5.974;2022-10-12T09:12:26;19.98;;;10.07;;
59756;SDS011;45631;51.962;5.974;2022-10-12T09:15:07;18.17;;;10.57;;
59756;SDS011;45631;51.962;5.974;2022-10-12T09:17:40;22.17;;;10.15;;
59756;SDS011;45631;51.962;5.974;2022-10-12T09:20:15;19.25;;;10.13;;
59756;SDS011;45631;51.962;5.974;2022-10-12T09:22:47;16.58;;;9.93;;
59756;SDS011;45631;51.962;5.974;2022-10-12T09:25:17;18.25;;;9.82;;
59756;SDS011;45631;51.962;5.974;2022-10-12T09:30:18;22.02;;;9.93;;
59756;SDS011;45631;51.962;5.974;2022-10-12T09:32:54;14.95;;;9.32;;
59756;SDS011;45631;51.962;5.974;2022-10-12T09:35:33;16.35;;;9.77;;
59756;SDS011;45631;51.962;5.974;2022-10-12T09:38:03;17.10;;;9.88;;
59756;SDS011;45631;51.962;5.974;2022-10-12T09:40:33;18.85;;;9.45;;
59756;SDS011;45631;51.962;5.974;2022-10-12T09:43:01;19.98;;;9.45;;
59756;SDS011;45631;51.962;5.974;2022-10-12T09:45:32;21.27;;;9.27;;
59756;SDS011;45631;51.962;5.974;2022-10-12T09:48:13;18.52;;;9.70;;
59756;SDS011;45631;51.962;5.974;2022-10-12T09:50:45;18.25;;;9.27;;
59756;SDS011;45631;51.962;5.974;2022-10-12T09:53:21;18.85;;;10.50;;
59756;SDS011;45631;51.962;5.974;2022-10-12T09:55:59;16.23;;;9.30;;
59756;SDS011;45631;51.962;5.974;2022-10-12T09:58:32;19.02;;;9.95;;
59756;SDS011;45631;51.962;5.974;2022-10-12T10:01:16;17.02;;;9.18;;
59756;SDS011;45631;51.962;5.974;2022-10-12T10:03:49;21.92;;;10.15;;
59756;SDS011;45631;51.962;5.974;2022-10-12T10:06:34;17.48;;;10.07;;
59756;SDS011;45631;51.962;5.974;2022-10-12T10:09:02;16.25;;;10.02;;
59756;SDS011;45631;51.962;5.974;2022-10-12T10:11:31;16.45;;;10.43;;
59756;SDS011;45631;51.962;5.974;2022-10-12T10:13:59;18.40;;;10.77;;
59756;SDS011;45631;51.962;5.974;2022-10-12T10:16:28;19.92;;;11.60;;
59756;SDS011;45631;51.962;5.974;2022-10-12T10:18:59;22.05;;;12.45;;
59756;SDS011;45631;51.962;5.974;2022-10-12T10:21:30;18.15;;;11.50;;
59756;SDS011;45631;51.962;5.974;2022-10-12T10:24:00;22.03;;;12.17;;
59756;SDS011;45631;51.962;5.974;2022-10-12T10:29:24;23.63;;;14.02;;
59756;SDS011;45631;51.962;5.974;2022-10-12T10:32:09;26.50;;;13.90;;
59756;SDS011;45631;51.962;5.974;2022-10-12T10:35:00;22.08;;;13.25;;
59756;SDS011;45631;51.962;5.974;2022-10-12T10:37:30;22.08;;;12.82;;
59756;SDS011;45631;51.962;5.974;2022-10-12T10:39:59;25.05;;;13.60;;
59756;SDS011;45631;51.962;5.974;2022-10-12T10:42:29;18.65;;;12.10;;
59756;SDS011;45631;51.962;5.974;2022-10-12T10:44:59;22.38;;;12.10;;
59756;SDS011;45631;51.962;5.974;2022-10-12T10:47:29;21.83;;;13.35;;
59756;SDS011;45631;51.962;5.974;2022-10-12T10:50:00;20.33;;;11.90;;
59756;SDS011;45631;51.962;5.974;2022-10-12T10:55:05;19.10;;;11.05;;
59756;SDS011;45631;51.962;5.974;2022-10-12T10:57:49;24.15;;;12.32;;
59756;SDS011;45631;51.962;5.974;2022-10-12T11:00:28;21.27;;;11.48;;
59756;SDS011;45631;51.962;5.974;2022-10-12T11:03:06;20.65;;;11.10;;
59756;SDS011;45631;51.962;5.974;2022-10-12T11:05:43;16.90;;;10.88;;
59756;SDS011;45631;51.962;5.974;2022-10-12T11:08:16;17.20;;;10.18;;
59756;SDS011;45631;51.962;5.974;2022-10-12T11:10:49;18.80;;;10.45;;
59756;SDS011;45631;51.962;5.974;2022-10-12T11:13:23;18.50;;;11.40;;
59756;SDS011;45631;51.962;5.974;2022-10-12T11:15:56;19.17;;;10.00;;
59756;SDS011;45631;51.962;5.974;2022-10-12T11:18:29;20.13;;;11.48;;
59756;SDS011;45631;51.962;5.974;2022-10-12T11:21:06;20.02;;;10.40;;
59756;SDS011;45631;51.962;5.974;2022-10-12T11:23:40;21.13;;;11.70;;
59756;SDS011;45631;51.962;5.974;2022-10-12T11:26:14;18.83;;;9.80;;
59756;SDS011;45631;51.962;5.974;2022-10-12T11:28:52;18.02;;;10.02;;
59756;SDS011;45631;51.962;5.974;2022-10-12T11:31:22;19.05;;;10.65;;
59756;SDS011;45631;51.962;5.974;2022-10-12T11:33:53;17.17;;;10.48;;
59756;SDS011;45631;51.962;5.974;2022-10-12T11:36:28;20.38;;;11.93;;
59756;SDS011;45631;51.962;5.974;2022-10-12T11:38:59;17.25;;;11.20;;
59756;SDS011;45631;51.962;5.974;2022-10-12T11:41:34;17.92;;;9.77;;
59756;SDS011;45631;51.962;5.974;2022-10-12T11:44:35;18.25;;;9.30;;
59756;SDS011;45631;51.962;5.974;2022-10-12T11:47:08;17.83;;;9.35;;
59756;SDS011;45631;51.962;5.974;2022-10-12T11:49:45;17.35;;;10.05;;
59756;SDS011;45631;51.962;5.974;2022-10-12T11:52:18;19.35;;;10.60;;
59756;SDS011;45631;51.962;5.974;2022-10-12T11:54:54;20.30;;;10.40;;
59756;SDS011;45631;51.962;5.974;2022-10-12T11:57:27;20.65;;;9.80;;
59756;SDS011;45631;51.962;5.974;2022-10-12T12:00:00;16.08;;;9.50;;
59756;SDS011;45631;51.962;5.974;2022-10-12T12:02:37;18.63;;;9.13;;
59756;SDS011;45631;51.962;5.974;2022-10-12T12:05:09;17.85;;;9.63;;
59756;SDS011;45631;51.962;5.974;2022-10-12T12:07:45;17.45;;;8.98;;
59756;SDS011;45631;51.962;5.974;2022-10-12T12:13:22;15.60;;;8.98;;
59756;SDS011;45631;51.962;5.974;2022-10-12T12:22:12;17.67;;;9.38;;
59756;SDS011;45631;51.962;5.974;2022-10-12T12:24:51;15.50;;;8.20;;
59756;SDS011;45631;51.962;5.974;2022-10-12T12:27:23;15.98;;;8.85;;
59756;SDS011;45631;51.962;5.974;2022-10-12T12:29:57;19.08;;;8.88;;
59756;SDS011;45631;51.962;5.974;2022-10-12T12:32:38;16.25;;;8.45;;
59756;SDS011;45631;51.962;5.974;2022-10-12T12:35:16;17.45;;;8.20;;
59756;SDS011;45631;51.962;5.974;2022-10-12T12:37:48;17.77;;;8.63;;
59756;SDS011;45631;51.962;5.974;2022-10-12T12:40:28;15.25;;;8.00;;
59756;SDS011;45631;51.962;5.974;2022-10-12T12:46:06;15.68;;;8.05;;
59756;SDS011;45631;51.962;5.974;2022-10-12T12:48:55;14.90;;;7.18;;
59756;SDS011;45631;51.962;5.974;2022-10-12T12:51:25;13.60;;;6.40;;
59756;SDS011;45631;51.962;5.974;2022-10-12T12:54:02;15.75;;;7.35;;
59756;SDS011;45631;51.962;5.974;2022-10-12T12:56:38;13.63;;;6.55;;
59756;SDS011;45631;51.962;5.974;2022-10-12T13:05:39;13.15;;;5.85;;
59756;SDS011;45631;51.962;5.974;2022-10-12T13:08:31;16.38;;;6.28;;
59756;SDS011;45631;51.962;5.974;2022-10-12T13:11:17;14.30;;;5.53;;
59756;SDS011;45631;51.962;5.974;2022-10-12T13:14:04;16.58;;;5.82;;
59756;SDS011;45631;51.962;5.974;2022-10-12T13:16:51;14.27;;;5.03;;
59756;SDS011;45631;51.962;5.974;2022-10-12T13:19:47;11.48;;;3.75;;
59756;SDS011;45631;51.962;5.974;2022-10-12T13:22:15;14.55;;;3.80;;
59756;SDS011;45631;51.962;5.974;2022-10-12T13:24:49;11.52;;;4.10;;
59756;SDS011;45631;51.962;5.974;2022-10-12T13:27:22;10.30;;;3.97;;
59756;SDS011;45631;51.962;5.974;2022-10-12T13:29:58;12.68;;;4.38;;
59756;SDS011;45631;51.962;5.974;2022-10-12T13:32:32;10.88;;;4.40;;
59756;SDS011;45631;51.962;5.974;2022-10-12T13:35:10;12.63;;;4.70;;
59756;SDS011;45631;51.962;5.974;2022-10-12T13:37:43;14.45;;;5.15;;
59756;SDS011;45631;51.962;5.974;2022-10-12T13:40:26;12.00;;;4.95;;
59756;SDS011;45631;51.962;5.974;2022-10-12T13:42:54;12.85;;;5.47;;
59756;SDS011;45631;51.962;5.974;2022-10-12T13:45:24;15.30;;;5.10;;
59756;SDS011;45631;51.962;5.974;2022-10-12T13:47:53;14.52;;;5.57;;
59756;SDS011;45631;51.962;5.974;2022-10-12T13:50:30;11.07;;;5.25;;
59756;SDS011;45631;51.962;5.974;2022-10-12T13:52:58;18.00;;;7.13;;
59756;SDS011;45631;51.962;5.974;2022-10-12T13:55:26;11.93;;;5.43;;
59756;SDS011;45631;51.962;5.974;2022-10-12T13:57:56;14.75;;;6.10;;
59756;SDS011;45631;51.962;5.974;2022-10-12T14:00:26;16.90;;;6.30;;
59756;SDS011;45631;51.962;5.974;2022-10-12T14:02:55;14.23;;;6.55;;
59756;SDS011;45631;51.962;5.974;2022-10-12T14:05:25;17.25;;;7.07;;
59756;SDS011;45631;51.962;5.974;2022-10-12T14:07:56;12.68;;;6.55;;
59756;SDS011;45631;51.962;5.974;2022-10-12T14:10:27;13.20;;;6.78;;
59756;SDS011;45631;51.962;5.974;2022-10-12T14:12:58;12.82;;;6.28;;
59756;SDS011;45631;51.962;5.974;2022-10-12T14:15:29;16.27;;;6.82;;
59756;SDS011;45631;51.962;5.974;2022-10-12T14:18:00;14.48;;;6.78;;
59756;SDS011;45631;51.962;5.974;2022-10-12T14:20:32;14.30;;;6.88;;
59756;SDS011;45631;51.962;5.974;2022-10-12T14:23:03;14.90;;;6.47;;
59756;SDS011;45631;51.962;5.974;2022-10-12T14:25:41;14.05;;;6.72;;
59756;SDS011;45631;51.962;5.974;2022-10-12T14:28:20;14.93;;;6.40;;
59756;SDS011;45631;51.962;5.974;2022-10-12T14:30:56;14.50;;;6.97;;
59756;SDS011;45631;51.962;5.974;2022-10-12T14:33:24;17.33;;;7.65;;
59756;SDS011;45631;51.962;5.974;2022-10-12T14:38:41;14.60;;;7.18;;
59756;SDS011;45631;51.962;5.974;2022-10-12T14:41:30;17.75;;;7.05;;
59756;SDS011;45631;51.962;5.974;2022-10-12T14:44:01;21.00;;;8.07;;
59756;SDS011;45631;51.962;5.974;2022-10-12T14:46:38;18.13;;;8.50;;
59756;SDS011;45631;51.962;5.974;2022-10-12T14:49:10;17.20;;;8.05;;
59756;SDS011;45631;51.962;5.974;2022-10-12T14:51:43;20.48;;;9.50;;
59756;SDS011;45631;51.962;5.974;2022-10-12T14:54:12;22.33;;;8.95;;
59756;SDS011;45631;51.962;5.974;2022-10-12T14:56:40;16.85;;;8.38;;
59756;SDS011;45631;51.962;5.974;2022-10-12T14:59:08;15.05;;;8.15;;
59756;SDS011;45631;51.962;5.974;2022-10-12T15:01:38;16.20;;;8.68;;
59756;SDS011;45631;51.962;5.974;2022-10-12T15:04:09;18.75;;;9.43;;
59756;SDS011;45631;51.962;5.974;2022-10-12T15:06:39;18.83;;;9.32;;
59756;SDS011;45631;51.962;5.974;2022-10-12T15:09:13;19.10;;;9.68;;
59756;SDS011;45631;51.962;5.974;2022-10-12T15:11:41;18.30;;;9.00;;
59756;SDS011;45631;51.962;5.974;2022-10-12T15:14:10;17.20;;;9.20;;
59756;SDS011;45631;51.962;5.974;2022-10-12T15:16:41;15.25;;;8.63;;
59756;SDS011;45631;51.962;5.974;2022-10-12T15:19:11;16.33;;;8.73;;
59756;SDS011;45631;51.962;5.974;2022-10-12T15:21:39;16.80;;;8.98;;
59756;SDS011;45631;51.962;5.974;2022-10-12T15:24:10;19.63;;;9.18;;
59756;SDS011;45631;51.962;5.974;2022-10-12T15:26:41;18.42;;;8.52;;
59756;SDS011;45631;51.962;5.974;2022-10-12T15:29:09;19.98;;;9.60;;
59756;SDS011;45631;51.962;5.974;2022-10-12T15:31:38;18.23;;;9.30;;
59756;SDS011;45631;51.962;5.974;2022-10-12T15:34:09;17.13;;;9.75;;
59756;SDS011;45631;51.962;5.974;2022-10-12T15:36:39;19.40;;;8.80;;
59756;SDS011;45631;51.962;5.974;2022-10-12T15:39:07;18.77;;;8.70;;
59756;SDS011;45631;51.962;5.974;2022-10-12T15:41:36;16.55;;;9.43;;
59756;SDS011;45631;51.962;5.974;2022-10-12T15:44:04;20.48;;;9.23;;
59756;SDS011;45631;51.962;5.974;2022-10-12T15:46:32;19.38;;;9.25;;